Time;durP1;ratioP1;P1;durP2;ratioP2;P2;SDS_P1;SDS_P2;PMS_P1;PMS_P2;Temp;Humidity;BMP_temperature;BMP_pressure;BME280_temperature;BME280_humidity;BME280_pressure;Samples;Min_cycle;Max_cycle;Signal;HPM_P1;HPM_P2
2021/08/24 00:01:36;;;;;;;13.95;4.93;;;;;;;;;;5073779;28;20483;-79
2021/08/24 00:04:02;;;;;;;8.60;4.10;;;;;;;;;;5074134;28;20099;-77
2021/08/24 00:06:28;;;;;;;10.38;5.40;;;;;;;;;;5074117;28;20024;-78
2021/08/24 00:08:54;;;;;;;9.55;5.00;;;;;;;;;;5074012;28;20381;-76
2021/08/24 00:11:20;;;;;;;8.50;5.28;;;;;;;;;;5074334;28;20036;-80
2021/08/24 00:13:46;;;;;;;10.05;5.45;;;;;;;;;;5073968;28;20021;-81
2021/08/24 00:16:14;;;;;;;11.10;5.32;;;;;;;;;;5072593;28;20028;-78
2021/08/24 00:18:40;;;;;;;12.55;5.50;;;;;;;;;;5073706;28;20060;-77
2021/08/24 00:21:06;;;;;;;12.57;5.88;;;;;;;;;;5073882;28;20035;-77
2021/08/24 00:23:32;;;;;;;11.38;6.53;;;;;;;;;;5073785;28;20025;-82
2021/08/24 00:25:59;;;;;;;9.70;5.93;;;;;;;;;;5072025;28;20063;-80
2021/08/24 00:28:25;;;;;;;11.30;5.43;;;;;;;;;;5072341;28;20574;-80
2021/08/24 00:30:51;;;;;;;9.70;5.72;;;;;;;;;;5072383;28;20529;-76
2021/08/24 00:33:18;;;;;;;10.15;5.78;;;;;;;;;;5073609;28;20044;-77
2021/08/24 00:35:44;;;;;;;10.23;6.00;;;;;;;;;;5073923;28;20017;-79
2021/08/24 00:38:11;;;;;;;8.13;5.40;;;;;;;;;;5072339;28;20392;-78
2021/08/24 00:40:38;;;;;;;9.48;5.38;;;;;;;;;;5073544;28;20028;-80
2021/08/24 00:43:04;;;;;;;12.48;5.75;;;;;;;;;;5076468;28;20052;-78
2021/08/24 00:45:32;;;;;;;9.32;5.20;;;;;;;;;;5080712;28;20055;-78
2021/08/24 00:47:59;;;;;;;10.75;5.32;;;;;;;;;;5081411;28;20504;-79
2021/08/24 00:50:27;;;;;;;9.82;5.90;;;;;;;;;;5076277;28;20027;-79
2021/08/24 00:52:56;;;;;;;13.68;6.35;;;;;;;;;;5072064;28;20170;-79
2021/08/24 00:55:23;;;;;;;10.88;5.70;;;;;;;;;;5073329;28;20020;-77
2021/08/24 00:57:57;;;;;;;14.35;6.55;;;;;;;;;;5073315;28;20024;-79
2021/08/24 01:00:23;;;;;;;13.02;5.47;;;;;;;;;;5073331;28;20140;-80
2021/08/24 01:02:49;;;;;;;17.05;7.22;;;;;;;;;;5073251;28;20035;-78
2021/08/24 01:05:15;;;;;;;12.20;7.45;;;;;;;;;;5073219;28;20029;-79
2021/08/24 01:07:55;;;;;;;11.48;6.18;;;;;;;;;;5071807;28;20020;-78
2021/08/24 01:10:23;;;;;;;12.13;6.18;;;;;;;;;;5073733;28;20032;-80
2021/08/24 01:12:49;;;;;;;10.30;5.75;;;;;;;;;;5073108;28;20040;-78
2021/08/24 01:15:24;;;;;;;14.75;6.03;;;;;;;;;;5073049;28;20481;-78
2021/08/24 01:18:08;;;;;;;10.45;5.47;;;;;;;;;;5071662;28;20056;-79
2021/08/24 01:20:34;;;;;;;12.70;5.93;;;;;;;;;;5073668;28;20383;-82
2021/08/24 01:23:00;;;;;;;10.48;5.43;;;;;;;;;;5073335;28;20024;-80
2021/08/24 01:25:26;;;;;;;9.65;5.43;;;;;;;;;;5073016;28;20028;-78
2021/08/24 01:28:00;;;;;;;9.05;5.53;;;;;;;;;;5072911;28;20029;-80
2021/08/24 01:30:42;;;;;;;9.60;4.90;;;;;;;;;;5073571;28;20032;-82
2021/08/24 01:33:16;;;;;;;9.27;4.88;;;;;;;;;;5073484;28;20027;-78
2021/08/24 01:35:47;;;;;;;7.93;4.50;;;;;;;;;;5073555;28;20024;-80
2021/08/24 01:38:25;;;;;;;8.90;4.88;;;;;;;;;;5074157;28;20031;-80
2021/08/24 01:40:57;;;;;;;8.95;5.15;;;;;;;;;;5075690;28;20570;-79
2021/08/24 01:43:31;;;;;;;11.23;4.97;;;;;;;;;;5077185;28;20408;-79
2021/08/24 01:46:05;;;;;;;8.98;5.43;;;;;;;;;;5075356;28;20032;-80
2021/08/24 01:48:34;;;;;;;9.63;5.05;;;;;;;;;;5076785;28;20028;-81
2021/08/24 01:51:03;;;;;;;13.30;5.70;;;;;;;;;;5076826;28;20052;-77
2021/08/24 01:53:35;;;;;;;11.73;5.65;;;;;;;;;;5076656;28;20021;-77
2021/08/24 01:56:21;;;;;;;10.57;6.13;;;;;;;;;;5076656;28;20495;-80
2021/08/24 01:59:06;;;;;;;8.82;5.50;;;;;;;;;;5076962;28;20025;-80
2021/08/24 02:01:38;;;;;;;10.63;6.35;;;;;;;;;;5075330;28;20041;-78
2021/08/24 02:04:08;;;;;;;11.18;6.40;;;;;;;;;;5077072;28;20024;-78
2021/08/24 02:06:42;;;;;;;12.07;6.85;;;;;;;;;;5075186;28;20032;-82
2021/08/24 02:09:12;;;;;;;11.43;6.45;;;;;;;;;;5075012;28;20540;-81
2021/08/24 02:11:41;;;;;;;10.77;5.75;;;;;;;;;;5076332;28;20028;-78
2021/08/24 02:14:09;;;;;;;12.63;6.82;;;;;;;;;;5076890;28;20017;-77
2021/08/24 02:16:35;;;;;;;14.63;6.72;;;;;;;;;;5076161;28;20031;-77
2021/08/24 02:19:06;;;;;;;10.63;6.43;;;;;;;;;;5075919;28;20052;-81
2021/08/24 02:21:32;;;;;;;;;;;;;;;;;;5076857;28;20035;-78
2021/08/24 02:24:00;;;;;;;13.43;6.43;;;;;;;;;;5076681;28;19908;-78
2021/08/24 02:26:27;;;;;;;11.23;6.72;;;;;;;;;;5076643;28;20504;-77
2021/08/24 02:28:55;;;;;;;13.40;6.35;;;;;;;;;;5076023;28;20028;-80
2021/08/24 02:31:30;;;;;;;9.63;6.38;;;;;;;;;;5076049;28;20020;-80
2021/08/24 02:34:02;;;;;;;11.45;6.45;;;;;;;;;;5075977;28;20384;-79
2021/08/24 02:36:29;;;;;;;10.43;6.55;;;;;;;;;;5076429;28;20020;-78
2021/08/24 02:38:59;;;;;;;12.15;6.50;;;;;;;;;;5076160;28;20388;-78
2021/08/24 02:41:25;;;;;;;;;;;;;;;;;;5076539;28;20025;-79
2021/08/24 02:44:01;;;;;;;11.90;6.93;;;;;;;;;;5075787;28;19923;-77
2021/08/24 02:46:28;;;;;;;14.77;7.18;;;;;;;;;;5075720;28;20028;-82
2021/08/24 02:48:57;;;;;;;14.52;6.85;;;;;;;;;;5075727;28;20115;-78
2021/08/24 02:51:23;;;;;;;13.07;6.68;;;;;;;;;;5075698;28;20028;-76
2021/08/24 02:53:55;;;;;;;12.45;7.05;;;;;;;;;;5076164;28;20059;-81
2021/08/24 02:56:21;;;;;;;11.43;6.65;;;;;;;;;;5075865;28;20388;-81
2021/08/24 02:58:47;;;;;;;11.20;6.63;;;;;;;;;;5075551;28;20032;-80
2021/08/24 03:01:13;;;;;;;12.50;6.43;;;;;;;;;;5074177;28;20028;-78
2021/08/24 03:03:39;;;;;;;9.70;6.57;;;;;;;;;;5077802;28;20036;-78
2021/08/24 03:06:05;;;;;;;15.80;7.13;;;;;;;;;;5075414;28;20064;-80
2021/08/24 03:08:31;;;;;;;9.75;6.30;;;;;;;;;;5073966;28;20074;-78
2021/08/24 03:10:58;;;;;;;12.93;6.82;;;;;;;;;;5075596;28;20460;-80
2021/08/24 03:13:27;;;;;;;14.07;7.03;;;;;;;;;;5075262;28;20016;-77
2021/08/24 03:15:53;;;;;;;12.60;6.75;;;;;;;;;;5075356;28;20108;-77
2021/08/24 03:18:45;;;;;;;11.93;6.15;;;;;;;;;;5075063;28;20125;-80
2021/08/24 03:21:13;;;;;;;14.38;7.35;;;;;;;;;;5071456;28;20041;-78
2021/08/24 03:23:42;;;;;;;16.02;6.72;;;;;;;;;;5075041;28;20020;-80
2021/08/24 03:26:08;;;;;;;14.23;6.90;;;;;;;;;;5073770;28;20037;-78
2021/08/24 03:28:37;;;;;;;13.15;6.53;;;;;;;;;;5074953;28;20028;-78
2021/08/24 03:31:03;;;;;;;15.10;6.32;;;;;;;;;;5073675;28;20025;-80
2021/08/24 03:33:29;;;;;;;16.98;6.60;;;;;;;;;;5074839;28;20017;-76
2021/08/24 03:35:55;;;;;;;11.15;5.82;;;;;;;;;;5075099;28;20021;-82
2021/08/24 03:38:21;;;;;;;13.13;6.45;;;;;;;;;;5074793;28;20452;-79
2021/08/24 03:40:47;;;;;;;11.32;6.03;;;;;;;;;;5074817;28;20047;-79
2021/08/24 03:43:13;;;;;;;11.27;6.63;;;;;;;;;;5074698;28;20056;-81
2021/08/24 03:45:39;;;;;;;9.73;6.20;;;;;;;;;;5073290;28;20028;-81
2021/08/24 03:48:06;;;;;;;12.25;6.32;;;;;;;;;;5075025;28;20489;-78
2021/08/24 03:50:32;;;;;;;12.32;6.47;;;;;;;;;;5074744;28;20141;-80
2021/08/24 03:52:58;;;;;;;11.27;6.65;;;;;;;;;;5074442;28;20032;-78
2021/08/24 03:55:24;;;;;;;12.43;6.55;;;;;;;;;;5074660;28;20024;-75
2021/08/24 03:57:50;;;;;;;14.65;6.47;;;;;;;;;;5074360;28;20032;-79
2021/08/24 04:00:16;;;;;;;13.65;6.40;;;;;;;;;;5073784;28;20476;-82
2021/08/24 04:02:42;;;;;;;11.35;6.63;;;;;;;;;;5073975;28;20107;-77
2021/08/24 04:05:09;;;;;;;12.30;6.80;;;;;;;;;;5074466;28;20031;-81
2021/08/24 04:07:35;;;;;;;13.35;6.10;;;;;;;;;;5074318;28;20025;-77
2021/08/24 04:10:01;;;;;;;7.10;5.10;;;;;;;;;;5072850;28;20027;-83
2021/08/24 04:12:27;;;;;;;8.93;5.90;;;;;;;;;;5074372;28;20021;-76
2021/08/24 04:14:53;;;;;;;8.60;5.38;;;;;;;;;;5073994;28;20469;-80
2021/08/24 04:17:20;;;;;;;10.30;5.82;;;;;;;;;;5073776;28;20036;-77
2021/08/24 04:19:46;;;;;;;10.88;5.53;;;;;;;;;;5074542;28;20354;-77
2021/08/24 04:22:16;;;;;;;10.35;5.53;;;;;;;;;;5074141;28;20039;-77
2021/08/24 04:24:42;;;;;;;10.13;6.57;;;;;;;;;;5073866;28;20029;-78
2021/08/24 04:27:08;;;;;;;9.00;5.32;;;;;;;;;;5072371;28;20028;-83
2021/08/24 04:29:36;;;;;;;7.72;4.80;;;;;;;;;;5074001;28;20451;-78
2021/08/24 04:32:02;;;;;;;10.18;5.18;;;;;;;;;;5072413;28;20043;-79
2021/08/24 04:34:28;;;;;;;9.82;5.55;;;;;;;;;;5072359;28;20059;-79
2021/08/24 04:36:54;;;;;;;10.50;5.47;;;;;;;;;;5073949;28;20017;-78
2021/08/24 04:39:20;;;;;;;12.00;5.70;;;;;;;;;;5073923;28;20024;-77
2021/08/24 04:41:46;;;;;;;11.68;6.07;;;;;;;;;;5073555;28;20485;-79
2021/08/24 04:44:12;;;;;;;12.27;5.60;;;;;;;;;;5072233;28;20035;-80
2021/08/24 04:46:38;;;;;;;12.13;6.22;;;;;;;;;;5073481;28;20108;-81
2021/08/24 04:49:04;;;;;;;9.18;5.30;;;;;;;;;;5073404;28;20060;-75
2021/08/24 04:51:30;;;;;;;8.82;4.82;;;;;;;;;;5073443;28;20484;-80
2021/08/24 04:53:56;;;;;;;8.15;4.60;;;;;;;;;;5072099;28;20042;-78
2021/08/24 04:56:22;;;;;;;6.65;4.38;;;;;;;;;;5073627;28;20029;-81
2021/08/24 04:58:48;;;;;;;9.05;5.10;;;;;;;;;;5073326;28;20032;-78
2021/08/24 05:01:14;;;;;;;11.15;6.32;;;;;;;;;;5073291;28;20484;-79
2021/08/24 05:03:40;;;;;;;10.05;6.35;;;;;;;;;;5073249;28;20031;-77
2021/08/24 05:06:06;;;;;;;11.70;6.63;;;;;;;;;;5073541;28;20078;-81
2021/08/24 05:08:32;;;;;;;9.23;5.93;;;;;;;;;;5073164;28;20017;-78
2021/08/24 05:10:58;;;;;;;11.02;6.28;;;;;;;;;;5073506;28;20035;-79
2021/08/24 05:13:24;;;;;;;13.10;6.85;;;;;;;;;;5073353;28;20096;-79
2021/08/24 05:15:50;;;;;;;11.00;6.30;;;;;;;;;;5073416;28;20032;-78
2021/08/24 05:18:16;;;;;;;11.70;7.05;;;;;;;;;;5071647;28;20044;-78
2021/08/24 05:20:42;;;;;;;12.15;6.60;;;;;;;;;;5073084;28;20480;-77
2021/08/24 05:23:08;;;;;;;13.68;7.85;;;;;;;;;;5073042;28;20085;-77
2021/08/24 05:25:34;;;;;;;10.85;6.55;;;;;;;;;;5071725;28;20025;-80
2021/08/24 05:28:01;;;;;;;11.32;6.60;;;;;;;;;;5073233;28;20028;-79
2021/08/24 05:30:27;;;;;;;9.38;6.63;;;;;;;;;;5071763;28;20028;-78
2021/08/24 05:32:54;;;;;;;11.55;6.60;;;;;;;;;;5073261;28;20504;-81
2021/08/24 05:35:20;;;;;;;11.90;6.18;;;;;;;;;;5073248;28;20049;-81
2021/08/24 05:37:47;;;;;;;12.90;6.70;;;;;;;;;;5073225;28;20035;-77
2021/08/24 05:40:13;;;;;;;14.18;7.18;;;;;;;;;;5072927;28;20035;-79
2021/08/24 05:42:39;;;;;;;13.77;7.13;;;;;;;;;;5072887;28;20043;-80
2021/08/24 05:45:06;;;;;;;12.02;7.53;;;;;;;;;;5073375;28;20115;-80
2021/08/24 05:47:32;;;;;;;12.45;6.82;;;;;;;;;;5072987;28;20060;-78
2021/08/24 05:49:59;;;;;;;11.00;6.85;;;;;;;;;;5073116;28;20024;-77
2021/08/24 05:52:25;;;;;;;10.13;6.20;;;;;;;;;;5072815;28;20023;-79
2021/08/24 05:54:51;;;;;;;10.07;6.00;;;;;;;;;;5072747;28;20032;-82
2021/08/24 05:57:18;;;;;;;10.05;5.50;;;;;;;;;;5073026;28;20024;-84
2021/08/24 05:59:44;;;;;;;9.40;6.35;;;;;;;;;;5073028;28;20057;-76
2021/08/24 06:02:11;;;;;;;12.55;5.95;;;;;;;;;;5072973;28;20024;-77
2021/08/24 06:04:37;;;;;;;9.80;6.22;;;;;;;;;;5071422;28;20058;-80
2021/08/24 06:07:03;;;;;;;13.65;7.22;;;;;;;;;;5075754;28;20025;-79
2021/08/24 06:09:29;;;;;;;11.48;5.60;;;;;;;;;;5078443;28;20052;-78
2021/08/24 06:11:56;;;;;;;10.95;6.38;;;;;;;;;;5078376;28;20020;-78
2021/08/24 06:14:22;;;;;;;12.20;6.15;;;;;;;;;;5073146;28;20025;-76
2021/08/24 06:16:54;;;;;;;11.27;6.57;;;;;;;;;;5072465;28;20100;-78
2021/08/24 06:19:21;;;;;;;11.15;5.90;;;;;;;;;;5070878;28;20098;-80
2021/08/24 06:21:47;;;;;;;10.98;5.93;;;;;;;;;;5072792;28;20017;-79
2021/08/24 06:24:13;;;;;;;9.65;5.45;;;;;;;;;;5073549;28;20110;-78
2021/08/24 06:26:39;;;;;;;9.38;6.22;;;;;;;;;;5074870;28;20055;-80
2021/08/24 06:29:05;;;;;;;10.90;6.50;;;;;;;;;;5074699;28;20068;-78
2021/08/24 06:31:32;;;;;;;10.50;5.90;;;;;;;;;;5076260;28;20423;-79
2021/08/24 06:33:58;;;;;;;9.90;5.97;;;;;;;;;;5074727;28;20442;-78
2021/08/24 06:36:24;;;;;;;9.50;5.78;;;;;;;;;;5075753;28;20074;-78
2021/08/24 06:38:51;;;;;;;9.50;6.43;;;;;;;;;;5075826;28;20109;-76
2021/08/24 06:41:18;;;;;;;10.18;6.45;;;;;;;;;;5075819;28;20024;-74
2021/08/24 06:43:44;;;;;;;11.18;6.43;;;;;;;;;;5075797;28;20127;-79
2021/08/24 06:46:10;;;;;;;10.50;6.32;;;;;;;;;;5075844;28;20036;-76
2021/08/24 06:48:37;;;;;;;10.93;6.57;;;;;;;;;;5075639;28;20039;-78
2021/08/24 06:51:03;;;;;;;10.93;6.68;;;;;;;;;;5076483;28;20026;-77
2021/08/24 06:53:29;;;;;;;11.52;6.10;;;;;;;;;;5075677;28;20103;-74
2021/08/24 06:55:55;;;;;;;8.43;6.00;;;;;;;;;;5075795;28;20095;-78
2021/08/24 06:58:21;;;;;;;8.38;5.82;;;;;;;;;;5075320;28;20483;-74
2021/08/24 07:00:48;;;;;;;9.38;6.43;;;;;;;;;;5074833;28;20043;-73
2021/08/24 07:03:15;;;;;;;10.55;6.07;;;;;;;;;;5074346;28;20029;-73
2021/08/24 07:05:45;;;;;;;10.40;6.63;;;;;;;;;;5074130;28;20500;-74
2021/08/24 07:08:12;;;;;;;12.23;6.60;;;;;;;;;;5075368;28;20020;-74
2021/08/24 07:10:39;;;;;;;11.27;7.60;;;;;;;;;;5075390;28;20032;-73
2021/08/24 07:13:05;;;;;;;11.70;7.38;;;;;;;;;;5075297;28;20025;-73
2021/08/24 07:15:33;;;;;;;12.90;7.95;;;;;;;;;;5075195;28;20024;-74
2021/08/24 07:17:59;;;;;;;12.27;7.32;;;;;;;;;;5074993;28;20052;-73
2021/08/24 07:20:25;;;;;;;12.40;7.95;;;;;;;;;;5075175;28;20025;-73
2021/08/24 07:22:52;;;;;;;17.33;9.07;;;;;;;;;;5075295;28;20440;-74
2021/08/24 07:25:20;;;;;;;12.77;8.95;;;;;;;;;;5074753;28;20507;-75
2021/08/24 07:27:47;;;;;;;16.17;9.35;;;;;;;;;;5074886;28;20029;-75
2021/08/24 07:30:14;;;;;;;12.68;8.95;;;;;;;;;;5075187;28;20027;-74
2021/08/24 07:32:40;;;;;;;12.18;8.50;;;;;;;;;;5073961;28;20075;-77
2021/08/24 07:35:07;;;;;;;15.10;10.52;;;;;;;;;;5074668;28;20021;-74
2021/08/24 07:37:33;;;;;;;17.30;9.93;;;;;;;;;;5074737;28;20028;-75
2021/08/24 07:39:59;;;;;;;14.70;9.75;;;;;;;;;;5074734;28;20021;-74
2021/08/24 07:42:25;;;;;;;16.08;10.20;;;;;;;;;;5074070;28;20036;-75
2021/08/24 07:44:51;;;;;;;16.48;9.48;;;;;;;;;;5072672;28;20206;-76
2021/08/24 07:47:17;;;;;;;15.88;10.18;;;;;;;;;;5072661;28;20055;-75
2021/08/24 07:49:46;;;;;;;13.57;9.90;;;;;;;;;;5072527;28;20477;-77
2021/08/24 07:52:13;;;;;;;17.75;11.18;;;;;;;;;;5074544;28;20031;-75
2021/08/24 07:54:39;;;;;;;21.35;10.27;;;;;;;;;;5074651;28;20021;-75
2021/08/24 07:57:05;;;;;;;15.55;11.15;;;;;;;;;;5074152;28;20025;-75
2021/08/24 07:59:32;;;;;;;15.35;11.35;;;;;;;;;;5073038;28;20127;-74
2021/08/24 08:01:58;;;;;;;17.95;11.85;;;;;;;;;;5074333;28;20020;-75
2021/08/24 08:04:25;;;;;;;22.25;13.25;;;;;;;;;;5074218;28;20020;-74
2021/08/24 08:06:51;;;;;;;16.67;12.43;;;;;;;;;;5074720;28;20035;-75
2021/08/24 08:09:20;;;;;;;19.00;13.10;;;;;;;;;;5074245;28;20034;-77
2021/08/24 08:11:49;;;;;;;18.05;13.48;;;;;;;;;;5074122;28;20021;-77
2021/08/24 08:14:15;;;;;;;16.95;12.75;;;;;;;;;;5074713;28;20052;-77
2021/08/24 08:16:41;;;;;;;18.67;13.20;;;;;;;;;;5073982;28;20094;-77
2021/08/24 08:19:07;;;;;;;17.33;13.52;;;;;;;;;;5073545;28;20102;-77
2021/08/24 08:21:34;;;;;;;21.27;14.20;;;;;;;;;;5073884;28;20028;-77
2021/08/24 08:24:01;;;;;;;21.52;14.40;;;;;;;;;;5073842;28;20031;-77
2021/08/24 08:26:27;;;;;;;23.90;14.73;;;;;;;;;;5073828;28;20028;-77
2021/08/24 08:28:55;;;;;;;21.00;14.90;;;;;;;;;;5073782;28;20029;-77
2021/08/24 08:31:21;;;;;;;17.42;13.30;;;;;;;;;;5072461;28;20020;-78
2021/08/24 08:33:47;;;;;;;20.88;15.52;;;;;;;;;;5074117;28;20021;-78
2021/08/24 08:36:14;;;;;;;21.50;15.52;;;;;;;;;;5074124;28;20027;-78
2021/08/24 08:38:40;;;;;;;20.15;13.88;;;;;;;;;;5073611;28;20082;-77
2021/08/24 08:41:09;;;;;;;19.35;15.02;;;;;;;;;;5074058;28;20025;-79
2021/08/24 08:43:54;;;;;;;21.30;15.48;;;;;;;;;;5073425;28;20044;-76
2021/08/24 08:46:35;;;;;;;22.55;14.68;;;;;;;;;;5073543;28;20032;-78
2021/08/24 08:49:01;;;;;;;;;;;;;;;;;;5074194;28;20491;-78
2021/08/24 08:51:27;;;;;;;20.63;15.00;;;;;;;;;;5073451;28;19905;-77
2021/08/24 08:54:11;;;;;;;21.80;16.23;;;;;;;;;;5073429;28;20028;-77
2021/08/24 08:56:37;;;;;;;25.60;15.90;;;;;;;;;;5073567;28;20038;-76
2021/08/24 08:59:18;;;;;;;17.52;14.75;;;;;;;;;;5070822;28;20547;-79
2021/08/24 09:01:50;;;;;;;21.15;15.82;;;;;;;;;;5072622;28;20101;-78
2021/08/24 09:04:16;;;;;;;23.25;15.05;;;;;;;;;;5073536;28;20024;-77
2021/08/24 09:06:44;;;;;;;19.55;15.05;;;;;;;;;;5073269;28;20499;-78
2021/08/24 09:09:10;;;;;;;22.52;16.48;;;;;;;;;;5071680;28;20033;-78
2021/08/24 09:11:38;;;;;;;20.23;16.55;;;;;;;;;;5073183;28;20017;-78
2021/08/24 09:14:08;;;;;;;21.02;15.55;;;;;;;;;;5073436;28;20031;-76
2021/08/24 09:16:38;;;;;;;18.52;15.00;;;;;;;;;;5073530;28;20049;-78
2021/08/24 09:19:05;;;;;;;;;;;;;;;;;;5073153;28;20055;-75
2021/08/24 09:21:35;;;;;;;20.92;15.02;;;;;;;;;;5073135;28;19904;-77
2021/08/24 09:24:07;;;;;;;23.08;14.30;;;;;;;;;;5073492;28;20020;-78
2021/08/24 09:26:39;;;;;;;19.50;14.85;;;;;;;;;;5071506;28;20062;-79
2021/08/24 09:29:06;;;;;;;17.85;14.15;;;;;;;;;;5073216;28;20522;-78
2021/08/24 09:31:33;;;;;;;24.35;15.23;;;;;;;;;;5072965;28;20035;-77
2021/08/24 09:33:59;;;;;;;18.80;14.20;;;;;;;;;;5073487;28;20016;-78
2021/08/24 09:36:25;;;;;;;19.27;14.18;;;;;;;;;;5073277;28;20151;-78
2021/08/24 09:38:53;;;;;;;15.73;13.07;;;;;;;;;;5072928;28;20564;-76
2021/08/24 09:41:25;;;;;;;19.83;13.23;;;;;;;;;;5073423;28;20056;-76
2021/08/24 09:43:56;;;;;;;15.85;11.57;;;;;;;;;;5072914;28;20035;-75
2021/08/24 09:46:21;;;;;;;15.60;13.13;;;;;;;;;;5071619;28;20029;-77
2021/08/24 09:48:47;;;;;;;18.50;13.52;;;;;;;;;;5071450;28;20024;-78
2021/08/24 09:51:19;;;;;;;16.85;13.30;;;;;;;;;;5073088;28;20104;-79
2021/08/24 09:53:45;;;;;;;16.52;12.48;;;;;;;;;;5072774;28;20039;-76
2021/08/24 09:56:12;;;;;;;18.13;13.38;;;;;;;;;;5072447;28;20429;-77
2021/08/24 09:58:45;;;;;;;19.02;13.18;;;;;;;;;;5073589;28;20508;-79
2021/08/24 10:01:12;;;;;;;18.23;12.90;;;;;;;;;;5077214;28;20032;-75
2021/08/24 10:03:40;;;;;;;16.92;12.93;;;;;;;;;;5077306;28;20029;-79
2021/08/24 10:06:06;;;;;;;15.43;12.02;;;;;;;;;;5076970;28;20029;-75
2021/08/24 10:08:34;;;;;;;14.00;11.20;;;;;;;;;;5077395;28;20073;-79
2021/08/24 10:11:21;;;;;;;12.40;10.25;;;;;;;;;;5077817;28;20469;-78
2021/08/24 10:13:47;;;;;;;12.30;10.18;;;;;;;;;;5064123;28;20107;-78
2021/08/24 10:16:22;;;;;;;12.88;9.82;;;;;;;;;;5077522;28;20496;-77
2021/08/24 10:18:50;;;;;;;12.80;10.18;;;;;;;;;;5076824;28;20045;-79
2021/08/24 10:21:29;;;;;;;12.38;9.82;;;;;;;;;;5077811;28;20032;-78
2021/08/24 10:23:59;;;;;;;13.93;10.00;;;;;;;;;;5077162;28;20021;-77
2021/08/24 10:26:32;;;;;;;13.40;10.68;;;;;;;;;;5076725;28;20040;-78
2021/08/24 10:29:00;;;;;;;13.98;11.40;;;;;;;;;;5076943;28;20024;-75
2021/08/24 10:31:26;;;;;;;13.18;10.45;;;;;;;;;;5076867;28;20028;-77
2021/08/24 10:33:54;;;;;;;13.23;10.15;;;;;;;;;;5076415;28;20047;-75
2021/08/24 10:36:27;;;;;;;14.63;10.98;;;;;;;;;;5076579;28;20476;-77
2021/08/24 10:39:02;;;;;;;13.15;9.05;;;;;;;;;;5076453;28;20020;-76
2021/08/24 10:41:34;;;;;;;12.52;9.88;;;;;;;;;;5075098;28;20064;-76
2021/08/24 10:44:03;;;;;;;13.93;10.40;;;;;;;;;;5077143;28;20025;-75
2021/08/24 10:46:29;;;;;;;12.10;10.00;;;;;;;;;;5076566;28;20480;-76
2021/08/24 10:48:56;;;;;;;11.07;7.97;;;;;;;;;;5076508;28;20024;-78
2021/08/24 10:51:41;;;;;;;10.63;7.97;;;;;;;;;;5076276;28;20029;-77
2021/08/24 10:54:13;;;;;;;12.55;7.93;;;;;;;;;;5074939;28;20022;-77
2021/08/24 10:56:43;;;;;;;10.23;7.80;;;;;;;;;;5076407;28;20507;-75
2021/08/24 10:59:09;;;;;;;11.57;8.38;;;;;;;;;;5076713;28;20100;-76
2021/08/24 11:01:41;;;;;;;12.55;9.18;;;;;;;;;;5075742;28;20062;-76
2021/08/24 11:04:07;;;;;;;12.77;9.60;;;;;;;;;;5076418;28;20020;-76
2021/08/24 11:06:39;;;;;;;10.95;8.55;;;;;;;;;;5075983;28;20472;-76
2021/08/24 11:09:19;;;;;;;12.68;9.10;;;;;;;;;;5076364;28;20028;-76
2021/08/24 11:11:51;;;;;;;12.00;8.90;;;;;;;;;;5076757;28;20028;-74
2021/08/24 11:14:32;;;;;;;11.98;8.18;;;;;;;;;;5079026;28;20381;-75
2021/08/24 11:17:13;;;;;;;13.60;9.27;;;;;;;;;;5075700;28;20061;-77
2021/08/24 11:19:57;;;;;;;11.60;9.00;;;;;;;;;;5075840;28;20036;-75
2021/08/24 11:22:39;;;;;;;13.02;8.90;;;;;;;;;;5076606;28;20104;-75
2021/08/24 11:25:11;;;;;;;13.68;9.23;;;;;;;;;;5077171;28;20017;-77
2021/08/24 11:27:56;;;;;;;11.57;8.60;;;;;;;;;;5076487;28;20392;-76
2021/08/24 11:30:27;;;;;;;12.00;9.45;;;;;;;;;;5073634;28;20108;-75
2021/08/24 11:33:05;;;;;;;12.95;8.30;;;;;;;;;;5075038;28;20024;-77
2021/08/24 11:35:44;;;;;;;14.90;9.40;;;;;;;;;;5075100;28;20480;-77
2021/08/24 11:38:14;;;;;;;12.07;9.10;;;;;;;;;;5074955;28;20103;-77
2021/08/24 11:40:40;;;;;;;;;;;;;;;;;;5075883;28;20111;-76
2021/08/24 11:43:07;;;;;;;10.18;8.43;;;;;;;;;;5074827;28;19954;-76
2021/08/24 11:45:43;;;;;;;12.82;9.48;;;;;;;;;;5074686;28;20112;-77
2021/08/24 11:48:19;;;;;;;12.63;9.52;;;;;;;;;;5073527;28;20060;-75
2021/08/24 11:50:45;;;;;;;12.70;8.77;;;;;;;;;;5076097;28;20396;-75
2021/08/24 11:53:15;;;;;;;11.55;8.63;;;;;;;;;;5075636;28;20025;-76
2021/08/24 11:55:43;;;;;;;10.07;8.52;;;;;;;;;;5075272;28;20059;-75
2021/08/24 11:58:27;;;;;;;12.00;8.98;;;;;;;;;;5074695;28;20031;-74
2021/08/24 12:00:55;;;;;;;12.88;9.63;;;;;;;;;;5074635;28;20454;-75
2021/08/24 12:03:22;;;;;;;12.57;9.32;;;;;;;;;;5074839;28;20150;-76
2021/08/24 12:06:04;;;;;;;10.65;8.38;;;;;;;;;;5074448;28;20052;-76
2021/08/24 12:08:33;;;;;;;12.30;9.63;;;;;;;;;;5072827;28;20046;-74
2021/08/24 12:11:05;;;;;;;12.93;10.10;;;;;;;;;;5073107;28;20476;-77
2021/08/24 12:13:33;;;;;;;14.20;9.57;;;;;;;;;;5074339;28;20048;-75
2021/08/24 12:16:35;;;;;;;14.85;8.88;;;;;;;;;;5074331;28;20024;-77
2021/08/24 12:19:03;;;;;;;11.50;9.07;;;;;;;;;;4992558;28;20109;-76
2021/08/24 12:21:30;;;;;;;15.63;9.38;;;;;;;;;;5042149;28;20044;-77
2021/08/24 12:23:57;;;;;;;10.10;8.10;;;;;;;;;;5054444;28;20028;-76
2021/08/24 12:26:23;;;;;;;11.73;7.72;;;;;;;;;;5054185;28;20039;-77
2021/08/24 12:28:49;;;;;;;10.27;7.97;;;;;;;;;;5054112;28;20028;-76
2021/08/24 12:31:36;;;;;;;12.85;7.88;;;;;;;;;;5052542;28;20025;-76
2021/08/24 12:34:22;;;;;;;10.32;8.13;;;;;;;;;;5054354;28;20021;-75
2021/08/24 12:36:48;;;;;;;12.57;7.85;;;;;;;;;;5053602;28;20036;-75
2021/08/24 12:39:32;;;;;;;12.10;7.55;;;;;;;;;;5053937;28;20025;-76
2021/08/24 12:42:12;;;;;;;10.85;7.63;;;;;;;;;;5054192;28;20036;-75
2021/08/24 12:44:46;;;;;;;8.10;6.97;;;;;;;;;;5053954;28;20103;-75
2021/08/24 12:47:15;;;;;;;10.43;7.15;;;;;;;;;;5054009;28;20063;-76
2021/08/24 12:49:41;;;;;;;8.90;7.20;;;;;;;;;;5053870;28;20059;-76
2021/08/24 12:52:27;;;;;;;10.68;7.40;;;;;;;;;;5053506;28;20025;-75
2021/08/24 12:54:59;;;;;;;9.15;6.78;;;;;;;;;;5053191;28;20017;-76
2021/08/24 12:57:33;;;;;;;10.30;6.80;;;;;;;;;;5053302;28;20083;-75
2021/08/24 13:00:31;;;;;;;10.60;6.10;;;;;;;;;;5053083;28;20028;-75
2021/08/24 13:02:59;;;;;;;8.95;6.55;;;;;;;;;;5030841;28;20116;-77
2021/08/24 13:05:30;;;;;;;10.63;6.97;;;;;;;;;;5053044;28;20017;-76
2021/08/24 13:08:15;;;;;;;8.45;6.18;;;;;;;;;;5053161;28;20033;-75
2021/08/24 13:10:42;;;;;;;9.13;5.80;;;;;;;;;;5053191;28;20017;-75
2021/08/24 13:13:27;;;;;;;10.02;6.10;;;;;;;;;;5053700;28;20048;-75
2021/08/24 13:15:58;;;;;;;7.15;6.25;;;;;;;;;;5053123;28;20438;-77
2021/08/24 13:18:32;;;;;;;8.95;6.57;;;;;;;;;;5065087;28;20048;-76
2021/08/24 13:21:21;;;;;;;10.48;6.18;;;;;;;;;;5073125;28;20032;-75
2021/08/24 13:23:48;;;;;;;10.23;6.20;;;;;;;;;;5062611;28;20134;-76
2021/08/24 13:26:22;;;;;;;11.25;6.55;;;;;;;;;;5073279;28;20030;-77
2021/08/24 13:28:49;;;;;;;8.73;5.93;;;;;;;;;;5072976;28;20031;-75
2021/08/24 13:31:23;;;;;;;8.18;6.32;;;;;;;;;;5073053;28;20595;-75
2021/08/24 13:34:00;;;;;;;9.38;6.43;;;;;;;;;;5075505;28;20024;-74
2021/08/24 13:36:30;;;;;;;7.00;5.72;;;;;;;;;;5077700;28;20028;-76
2021/08/24 13:38:57;;;;;;;8.50;5.15;;;;;;;;;;5077729;28;20028;-77
2021/08/24 13:41:42;;;;;;;6.53;5.32;;;;;;;;;;5076142;28;20029;-78
2021/08/24 13:44:13;;;;;;;8.27;4.82;;;;;;;;;;5077588;28;20530;-79
2021/08/24 13:46:41;;;;;;;8.00;5.13;;;;;;;;;;5076945;28;20051;-79
2021/08/24 13:49:09;;;;;;;7.68;4.80;;;;;;;;;;5075559;28;20396;-77
2021/08/24 13:51:45;;;;;;;7.75;4.65;;;;;;;;;;5076883;28;20017;-74
2021/08/24 13:54:12;;;;;;;5.55;4.20;;;;;;;;;;5076821;28;20469;-77
2021/08/24 13:56:39;;;;;;;5.88;4.55;;;;;;;;;;5076776;28;20055;-78
2021/08/24 13:59:05;;;;;;;7.38;5.20;;;;;;;;;;5076295;28;20033;-77
2021/08/24 14:01:32;;;;;;;6.95;5.05;;;;;;;;;;5076652;28;20016;-77
2021/08/24 14:04:22;;;;;;;8.52;4.95;;;;;;;;;;5076644;28;20404;-78
2021/08/24 14:07:06;;;;;;;5.93;4.20;;;;;;;;;;5066222;28;20119;-78
2021/08/24 14:09:39;;;;;;;6.80;4.18;;;;;;;;;;5074810;28;20028;-76
2021/08/24 14:12:07;;;;;;;7.63;4.40;;;;;;;;;;5076788;28;20025;-78
2021/08/24 14:14:44;;;;;;;6.88;4.47;;;;;;;;;;5076914;28;20028;-77
2021/08/24 14:17:25;;;;;;;5.43;3.75;;;;;;;;;;5076550;28;20055;-75
2021/08/24 14:19:52;;;;;;;6.70;4.30;;;;;;;;;;5076593;28;20032;-78
2021/08/24 14:22:18;;;;;;;6.35;4.20;;;;;;;;;;5076638;28;20094;-77
2021/08/24 14:24:44;;;;;;;5.65;3.67;;;;;;;;;;5076221;28;20028;-77
2021/08/24 14:27:13;;;;;;;5.35;3.95;;;;;;;;;;5076152;28;20047;-77
2021/08/24 14:29:39;;;;;;;5.90;3.83;;;;;;;;;;5076355;28;20025;-78
2021/08/24 14:32:06;;;;;;;6.65;3.78;;;;;;;;;;5076094;28;20032;-77
2021/08/24 14:34:31;;;;;;;5.72;4.18;;;;;;;;;;5076076;28;20017;-78
2021/08/24 14:37:18;;;;;;;6.30;3.95;;;;;;;;;;5074676;28;20032;-78
2021/08/24 14:39:51;;;;;;;5.95;3.42;;;;;;;;;;5075819;28;20480;-77
2021/08/24 14:42:36;;;;;;;6.85;3.75;;;;;;;;;;5075927;28;20032;-76
2021/08/24 14:45:08;;;;;;;4.57;3.53;;;;;;;;;;5075625;28;20467;-77
2021/08/24 14:47:34;;;;;;;5.53;3.50;;;;;;;;;;5074236;28;20032;-75